sensor_id;sensor_type;location;lat;lon;timestamp;temperature;humidity
42965;DHT22;28604;51.204;22.552;2024-03-17T00:01:38;10.50;92.80
42965;DHT22;28604;51.204;22.552;2024-03-17T00:04:04;10.40;93.10
42965;DHT22;28604;51.204;22.552;2024-03-17T00:06:30;10.50;92.80
42965;DHT22;28604;51.204;22.552;2024-03-17T00:08:56;10.60;93.00
42965;DHT22;28604;51.204;22.552;2024-03-17T00:11:22;10.50;93.10
42965;DHT22;28604;51.204;22.552;2024-03-17T00:13:47;10.50;93.00
42965;DHT22;28604;51.204;22.552;2024-03-17T00:16:13;10.50;93.00
42965;DHT22;28604;51.204;22.552;2024-03-17T00:18:39;10.50;92.90
42965;DHT22;28604;51.204;22.552;2024-03-17T00:21:06;10.50;93.00
42965;DHT22;28604;51.204;22.552;2024-03-17T00:23:32;10.50;92.80
42965;DHT22;28604;51.204;22.552;2024-03-17T00:25:58;10.50;92.90
42965;DHT22;28604;51.204;22.552;2024-03-17T00:28:23;10.50;92.80
42965;DHT22;28604;51.204;22.552;2024-03-17T13:38:30;8.40;74.00
42965;DHT22;28604;51.204;22.552;2024-03-17T13:40:57;8.40;73.40
42965;DHT22;28604;51.204;22.552;2024-03-17T13:43:22;8.30;73.80
42965;DHT22;28604;51.204;22.552;2024-03-17T13:45:48;8.30;73.10
42965;DHT22;28604;51.204;22.552;2024-03-17T13:48:15;8.40;73.70
42965;DHT22;28604;51.204;22.552;2024-03-17T13:50:41;8.10;73.50
42965;DHT22;28604;51.204;22.552;2024-03-17T13:53:10;8.10;73.80
42965;DHT22;28604;51.204;22.552;2024-03-17T13:55:36;8.00;74.00
42965;DHT22;28604;51.204;22.552;2024-03-17T13:58:02;8.10;74.40
42965;DHT22;28604;51.204;22.552;2024-03-17T14:00:30;8.00;74.30
42965;DHT22;28604;51.204;22.552;2024-03-17T14:02:57;8.40;74.50
42965;DHT22;28604;51.204;22.552;2024-03-17T14:05:23;8.00;73.40
42965;DHT22;28604;51.204;22.552;2024-03-17T14:07:50;8.20;73.90
42965;DHT22;28604;51.204;22.552;2024-03-17T14:10:17;7.90;73.90
42965;DHT22;28604;51.204;22.552;2024-03-17T14:12:43;7.90;73.60
42965;DHT22;28604;51.204;22.552;2024-03-17T14:15:10;7.90;74.00
42965;DHT22;28604;51.204;22.552;2024-03-17T14:17:43;7.80;73.90
42965;DHT22;28604;51.204;22.552;2024-03-17T14:20:09;7.80;73.50
42965;DHT22;28604;51.204;22.552;2024-03-17T14:22:39;7.80;74.20
42965;DHT22;28604;51.204;22.552;2024-03-17T14:25:05;7.90;75.10
42965;DHT22;28604;51.204;22.552;2024-03-17T14:27:31;7.80;74.60
42965;DHT22;28604;51.204;22.552;2024-03-17T14:29:57;7.70;75.00
42965;DHT22;28604;51.204;22.552;2024-03-17T14:32:23;7.70;75.00
42965;DHT22;28604;51.204;22.552;2024-03-17T14:34:49;8.20;75.80
42965;DHT22;28604;51.204;22.552;2024-03-17T14:37:15;7.60;76.10
42965;DHT22;28604;51.204;22.552;2024-03-17T14:39:41;7.60;76.50
42965;DHT22;28604;51.204;22.552;2024-03-17T14:42:07;7.60;76.60
42965;DHT22;28604;51.204;22.552;2024-03-17T14:44:36;7.70;76.80
42965;DHT22;28604;51.204;22.552;2024-03-17T14:47:02;7.60;76.80
42965;DHT22;28604;51.204;22.552;2024-03-17T14:49:30;7.60;76.80
42965;DHT22;28604;51.204;22.552;2024-03-17T14:51:56;7.50;76.50
42965;DHT22;28604;51.204;22.552;2024-03-17T14:54:22;7.50;77.30
42965;DHT22;28604;51.204;22.552;2024-03-17T14:56:48;7.40;77.10
42965;DHT22;28604;51.204;22.552;2024-03-17T14:59:14;7.40;78.60
42965;DHT22;28604;51.204;22.552;2024-03-17T15:01:45;7.30;78.50
42965;DHT22;28604;51.204;22.552;2024-03-17T15:04:11;7.30;78.40
42965;DHT22;28604;51.204;22.552;2024-03-17T15:06:37;7.30;79.20
42965;DHT22;28604;51.204;22.552;2024-03-17T15:09:03;7.30;80.20
42965;DHT22;28604;51.204;22.552;2024-03-17T15:11:30;7.30;79.90
42965;DHT22;28604;51.204;22.552;2024-03-17T15:13:56;7.40;80.00
42965;DHT22;28604;51.204;22.552;2024-03-17T15:16:21;7.20;79.90
42965;DHT22;28604;51.204;22.552;2024-03-17T15:18:49;7.20;79.60
42965;DHT22;28604;51.204;22.552;2024-03-17T15:21:16;7.20;79.30
42965;DHT22;28604;51.204;22.552;2024-03-17T15:23:42;7.10;79.60
42965;DHT22;28604;51.204;22.552;2024-03-17T15:26:07;7.10;79.20
42965;DHT22;28604;51.204;22.552;2024-03-17T15:28:34;7.00;79.00
42965;DHT22;28604;51.204;22.552;2024-03-17T15:31:02;7.00;78.80
42965;DHT22;28604;51.204;22.552;2024-03-17T15:33:28;6.90;78.10
42965;DHT22;28604;51.204;22.552;2024-03-17T15:35:54;6.90;78.00
42965;DHT22;28604;51.204;22.552;2024-03-17T18:08:56;5.80;77.30
42965;DHT22;28604;51.204;22.552;2024-03-17T18:11:24;5.70;77.80
42965;DHT22;28604;51.204;22.552;2024-03-17T18:13:49;5.70;78.10
42965;DHT22;28604;51.204;22.552;2024-03-17T18:16:16;5.70;77.80
42965;DHT22;28604;51.204;22.552;2024-03-17T18:18:41;5.70;78.10
42965;DHT22;28604;51.204;22.552;2024-03-17T18:21:08;5.70;78.10
42965;DHT22;28604;51.204;22.552;2024-03-17T18:23:35;5.60;77.80
42965;DHT22;28604;51.204;22.552;2024-03-17T18:26:05;5.60;77.80
42965;DHT22;28604;51.204;22.552;2024-03-17T18:28:33;5.60;78.10
42965;DHT22;28604;51.204;22.552;2024-03-17T18:30:59;5.60;78.30
42965;DHT22;28604;51.204;22.552;2024-03-17T18:33:25;5.60;78.50
42965;DHT22;28604;51.204;22.552;2024-03-17T18:35:52;5.50;78.80
42965;DHT22;28604;51.204;22.552;2024-03-17T18:38:18;5.60;78.70
42965;DHT22;28604;51.204;22.552;2024-03-17T18:40:45;5.50;78.90
42965;DHT22;28604;51.204;22.552;2024-03-17T18:43:15;5.50;78.70
42965;DHT22;28604;51.204;22.552;2024-03-17T18:45:42;5.40;78.50
42965;DHT22;28604;51.204;22.552;2024-03-17T18:48:08;5.60;78.70
42965;DHT22;28604;51.204;22.552;2024-03-17T18:50:35;5.40;78.90
42965;DHT22;28604;51.204;22.552;2024-03-17T18:53:01;5.50;78.80
42965;DHT22;28604;51.204;22.552;2024-03-17T18:55:27;5.40;79.00
42965;DHT22;28604;51.204;22.552;2024-03-17T18:57:53;5.40;78.70
42965;DHT22;28604;51.204;22.552;2024-03-17T19:00:19;5.30;78.50
42965;DHT22;28604;51.204;22.552;2024-03-17T19:02:46;5.20;78.30
42965;DHT22;28604;51.204;22.552;2024-03-17T19:05:12;5.20;78.50
42965;DHT22;28604;51.204;22.552;2024-03-17T19:07:38;5.20;78.50
42965;DHT22;28604;51.204;22.552;2024-03-17T19:10:04;5.20;78.60
42965;DHT22;28604;51.204;22.552;2024-03-17T19:12:33;5.50;78.90
42965;DHT22;28604;51.204;22.552;2024-03-17T19:15:00;5.20;78.80
42965;DHT22;28604;51.204;22.552;2024-03-17T19:17:26;5.10;78.80
42965;DHT22;28604;51.204;22.552;2024-03-17T19:19:52;5.10;78.90
42965;DHT22;28604;51.204;22.552;2024-03-17T19:22:18;5.20;79.00
42965;DHT22;28604;51.204;22.552;2024-03-17T19:24:50;5.10;79.20
42965;DHT22;28604;51.204;22.552;2024-03-17T19:27:16;5.10;79.50
42965;DHT22;28604;51.204;22.552;2024-03-17T19:29:42;4.90;80.40
42965;DHT22;28604;51.204;22.552;2024-03-17T19:32:08;4.90;80.80
42965;DHT22;28604;51.204;22.552;2024-03-17T19:34:35;4.90;81.50
42965;DHT22;28604;51.204;22.552;2024-03-17T19:37:02;4.90;81.90
42965;DHT22;28604;51.204;22.552;2024-03-17T19:39:28;4.90;83.00
42965;DHT22;28604;51.204;22.552;2024-03-17T19:41:54;4.80;82.90
42965;DHT22;28604;51.204;22.552;2024-03-17T19:44:21;4.70;83.20
42965;DHT22;28604;51.204;22.552;2024-03-17T19:46:47;4.80;83.40
42965;DHT22;28604;51.204;22.552;2024-03-17T19:49:13;4.80;83.20
42965;DHT22;28604;51.204;22.552;2024-03-17T19:51:39;4.80;83.50
42965;DHT22;28604;51.204;22.552;2024-03-17T19:54:05;4.70;83.60
42965;DHT22;28604;51.204;22.552;2024-03-17T19:56:31;4.70;84.20
42965;DHT22;28604;51.204;22.552;2024-03-17T19:58:58;4.50;85.60
42965;DHT22;28604;51.204;22.552;2024-03-17T20:01:24;4.40;85.30
42965;DHT22;28604;51.204;22.552;2024-03-17T20:03:50;4.60;85.20
42965;DHT22;28604;51.204;22.552;2024-03-17T20:06:25;4.60;85.00
